Time;durP1;ratioP1;P1;durP2;ratioP2;P2;SDS_P1;SDS_P2;PMS_P1;PMS_P2;Temp;Humidity;BMP_temperature;BMP_pressure;BME280_temperature;BME280_humidity;BME280_pressure;Samples;Min_cycle;Max_cycle;Signal;HPM_P1;HPM_P2
2022/05/26 00:01:39;;;;;;;14.93;8.93;;;14.70;99.90;;;;;;5072623;28;20048;-65
2022/05/26 00:04:05;;;;;;;14.57;9.88;;;14.70;99.90;;;;;;5079329;28;20051;-64
2022/05/26 00:06:31;;;;;;;16.17;9.68;;;14.70;99.90;;;;;;5078840;28;20036;-64
2022/05/26 00:08:58;;;;;;;15.98;10.02;;;14.70;99.90;;;;;;5076797;28;20127;-64
2022/05/26 00:11:35;;;;;;;15.10;10.32;;;14.70;99.90;;;;;;5073871;28;20049;-64
2022/05/26 00:14:07;;;;;;;18.50;11.38;;;14.70;99.90;;;;;;5078940;28;20218;-64
2022/05/26 00:16:44;;;;;;;13.90;9.60;;;14.70;99.90;;;;;;5081949;28;20044;-65
2022/05/26 00:19:15;;;;;;;15.93;10.52;;;14.70;99.90;;;;;;5074694;28;20056;-66
2022/05/26 00:21:41;;;;;;;20.25;10.60;;;14.70;99.90;;;;;;5079903;28;20048;-64
2022/05/26 00:24:07;;;;;;;20.77;10.70;;;14.70;99.90;;;;;;5080497;28;20062;-65
2022/05/26 00:26:33;;;;;;;18.45;10.65;;;14.70;99.90;;;;;;5081531;28;20047;-64
2022/05/26 00:28:59;;;;;;;20.17;11.77;;;14.70;99.90;;;;;;5081727;28;20040;-66
2022/05/26 00:31:25;;;;;;;20.40;11.50;;;14.70;99.90;;;;;;5081522;28;20059;-64
2022/05/26 00:33:50;;;;;;;20.83;11.98;;;14.70;99.90;;;;;;5084650;28;20521;-64
2022/05/26 00:36:17;;;;;;;20.10;10.88;;;14.70;99.90;;;;;;5080361;28;20493;-65
2022/05/26 00:38:43;;;;;;;22.48;11.13;;;14.70;99.90;;;;;;5082333;28;20298;-64
2022/05/26 00:41:11;;;;;;;19.08;10.70;;;14.70;99.90;;;;;;5073753;28;20489;-64
2022/05/26 00:43:44;;;;;;;21.50;12.00;;;14.80;99.90;;;;;;5082792;28;20036;-65
2022/05/26 00:46:20;;;;;;;19.23;11.23;;;14.70;99.90;;;;;;5082843;28;20171;-64
2022/05/26 00:48:51;;;;;;;16.70;11.10;;;14.80;99.90;;;;;;5082725;28;20461;-64
2022/05/26 00:51:21;;;;;;;22.95;12.57;;;14.80;99.90;;;;;;5085435;28;20052;-64
2022/05/26 00:53:54;;;;;;;20.02;11.57;;;14.70;99.90;;;;;;5078180;28;20063;-64
2022/05/26 00:56:32;;;;;;;25.35;12.57;;;14.70;99.90;;;;;;5072745;28;20127;-65
2022/05/26 00:59:13;;;;;;;19.92;11.45;;;14.80;99.90;;;;;;5079950;28;20080;-64
2022/05/26 01:01:39;;;;;;;20.25;11.35;;;14.70;99.90;;;;;;5077228;28;20340;-66
2022/05/26 01:04:10;;;;;;;21.25;11.02;;;14.70;99.90;;;;;;5077366;28;20142;-63
2022/05/26 01:06:45;;;;;;;25.35;11.88;;;14.70;99.90;;;;;;5082636;28;20268;-63
2022/05/26 01:09:11;;;;;;;;;;;14.70;99.90;;;;;;5084703;28;20147;-63
2022/05/26 01:11:39;;;;;;;25.98;11.95;;;14.70;99.90;;;;;;5082195;28;20381;-63
2022/05/26 01:14:12;;;;;;;18.13;10.52;;;14.70;99.90;;;;;;5076879;28;20035;-63
2022/05/26 01:17:07;;;;;;;21.45;11.18;;;14.70;99.90;;;;;;5071842;28;20895;-65
2022/05/26 01:20:10;;;;;;;21.45;12.18;;;14.80;99.90;;;;;;5056012;28;20136;-64
2022/05/26 01:23:13;;;;;;;20.70;10.93;;;14.80;99.90;;;;;;5068452;28;20413;-63
2022/05/26 01:26:12;;;;;;;21.02;10.80;;;14.80;99.90;;;;;;5071172;28;20454;-65
2022/05/26 01:29:15;;;;;;;22.25;10.75;;;14.80;99.90;;;;;;5072645;28;20139;-67
2022/05/26 01:31:46;;;;;;;20.58;10.90;;;14.80;99.90;;;;;;5071131;28;20092;-66
2022/05/26 01:34:30;;;;;;;20.92;10.57;;;14.90;99.90;;;;;;5069734;28;20554;-65
2022/05/26 01:37:02;;;;;;;23.43;11.40;;;14.80;99.90;;;;;;5072849;28;20198;-63
2022/05/26 01:39:43;;;;;;;25.42;11.93;;;14.90;99.90;;;;;;5070962;28;20115;-65
2022/05/26 01:42:33;;;;;;;25.02;11.00;;;14.90;99.90;;;;;;5066688;28;20440;-67
2022/05/26 01:45:23;;;;;;;24.35;10.43;;;14.80;99.90;;;;;;5067908;28;20047;-64
2022/05/26 01:48:40;;;;;;;21.25;9.85;;;14.90;99.90;;;;;;5067154;28;20156;-64
2022/05/26 01:51:18;;;;;;;20.23;10.23;;;14.90;99.90;;;;;;5052385;28;20079;-63
2022/05/26 01:53:57;;;;;;;23.02;9.73;;;14.90;99.90;;;;;;5067986;28;20044;-63
2022/05/26 01:56:47;;;;;;;22.63;10.63;;;14.90;99.90;;;;;;5066894;28;20549;-65
2022/05/26 01:59:18;;;;;;;20.98;9.63;;;14.80;99.90;;;;;;5066891;28;20093;-63
2022/05/26 02:01:51;;;;;;;21.52;8.85;;;14.80;99.90;;;;;;5069045;28;20060;-66
2022/05/26 02:04:23;;;;;;;25.42;9.60;;;14.80;99.90;;;;;;5073554;28;20306;-64
2022/05/26 02:06:54;;;;;;;23.40;8.82;;;14.80;99.90;;;;;;5068432;28;20048;-66
2022/05/26 02:09:27;;;;;;;22.45;8.90;;;14.90;99.90;;;;;;5069053;28;20075;-65
2022/05/26 02:12:18;;;;;;;26.42;9.27;;;14.90;99.90;;;;;;5069577;28;20036;-64
2022/05/26 02:14:50;;;;;;;22.85;8.95;;;14.80;99.90;;;;;;5068517;28;21235;-63
2022/05/26 02:17:30;;;;;;;24.67;8.95;;;14.80;99.90;;;;;;5068610;28;20113;-65
2022/05/26 02:20:04;;;;;;;21.58;8.32;;;14.80;99.90;;;;;;5070747;28;20106;-62
2022/05/26 02:22:34;;;;;;;23.40;7.63;;;14.80;99.90;;;;;;5068412;28;20040;-63
2022/05/26 02:25:05;;;;;;;25.23;8.52;;;14.90;99.90;;;;;;5069589;28;20048;-64
2022/05/26 02:27:32;;;;;;;23.10;7.85;;;14.80;99.90;;;;;;5068641;28;20055;-63
2022/05/26 02:30:00;;;;;;;29.10;8.77;;;14.80;99.90;;;;;;5070374;28;20091;-63
2022/05/26 02:32:36;;;;;;;24.92;8.38;;;14.80;99.90;;;;;;5070948;28;20067;-63
2022/05/26 02:35:07;;;;;;;21.75;7.63;;;14.80;99.90;;;;;;5066939;28;20430;-63
2022/05/26 02:37:35;;;;;;;30.67;8.68;;;14.80;99.90;;;;;;5068645;28;20167;-64
2022/05/26 02:40:01;;;;;;;25.23;7.43;;;14.80;99.90;;;;;;5070515;28;20048;-64
2022/05/26 02:42:28;;;;;;;25.45;7.70;;;14.80;99.90;;;;;;5070571;28;20043;-63
2022/05/26 02:44:54;;;;;;;24.48;6.80;;;14.80;99.90;;;;;;5071248;28;20160;-64
2022/05/26 02:47:30;;;;;;;24.38;7.72;;;14.80;99.90;;;;;;5069256;28;20557;-64
2022/05/26 02:50:08;;;;;;;27.75;7.82;;;14.80;99.90;;;;;;5069298;28;20084;-64
2022/05/26 02:52:51;;;;;;;25.10;7.05;;;14.80;99.90;;;;;;5070190;28;20044;-63
2022/05/26 02:55:31;;;;;;;28.30;7.85;;;14.80;99.90;;;;;;5069803;28;20174;-64
2022/05/26 02:58:09;;;;;;;26.63;7.30;;;14.80;99.90;;;;;;5077688;28;20128;-63
2022/05/26 03:00:52;;;;;;;29.00;7.38;;;14.90;99.90;;;;;;5076580;28;20052;-64
2022/05/26 03:03:31;;;;;;;21.10;6.25;;;14.90;99.90;;;;;;5069482;28;20132;-65
2022/05/26 03:06:15;;;;;;;25.88;6.45;;;14.90;99.90;;;;;;5069330;28;20048;-64
2022/05/26 03:08:43;;;;;;;24.58;6.18;;;14.90;99.90;;;;;;5070382;28;20913;-64
2022/05/26 03:11:12;;;;;;;27.73;6.80;;;14.90;99.90;;;;;;5069099;28;20036;-65
2022/05/26 03:13:38;;;;;;;24.50;6.53;;;14.90;99.90;;;;;;5071183;28;20047;-64
2022/05/26 03:16:05;;;;;;;25.67;6.30;;;14.80;99.90;;;;;;5072180;28;20055;-64
2022/05/26 03:18:30;;;;;;;21.52;6.13;;;14.80;99.90;;;;;;5072895;28;20100;-66
2022/05/26 03:21:00;;;;;;;28.05;6.10;;;14.80;99.90;;;;;;5071988;28;20052;-64
2022/05/26 03:23:27;;;;;;;24.83;5.82;;;14.80;99.90;;;;;;5070936;28;20098;-64
2022/05/26 03:25:55;;;;;;;28.80;6.43;;;14.80;99.90;;;;;;5075252;28;20184;-65
2022/05/26 03:28:20;;;;;;;26.42;5.63;;;14.80;99.90;;;;;;5071891;28;20408;-64
2022/05/26 03:30:46;;;;;;;24.50;5.47;;;14.80;99.90;;;;;;5073096;28;21137;-64
2022/05/26 03:33:11;;;;;;;19.88;4.65;;;14.80;99.90;;;;;;5076185;28;20406;-63
2022/05/26 03:41:06;;;;;;;14.05;3.42;;;14.80;99.90;;;;;;5074005;28;20044;-65
2022/05/26 03:43:37;;;;;;;19.05;3.78;;;14.80;99.90;;;;;;5074125;28;21742;-63
2022/05/26 03:46:03;;;;;;;13.13;3.67;;;14.80;99.90;;;;;;5069050;28;20123;-63
2022/05/26 03:48:29;;;;;;;15.05;3.50;;;14.80;99.90;;;;;;5074633;28;20048;-64
2022/05/26 03:50:55;;;;;;;16.42;3.72;;;14.80;99.90;;;;;;5072316;28;20428;-64
2022/05/26 03:53:20;;;;;;;17.58;3.58;;;14.70;99.90;;;;;;5074520;28;20054;-64
2022/05/26 03:55:46;;;;;;;13.60;3.33;;;14.70;99.90;;;;;;5072180;28;20041;-64
2022/05/26 03:58:11;;;;;;;11.38;3.00;;;14.70;99.90;;;;;;5070623;28;20052;-64
2022/05/26 04:00:37;;;;;;;13.95;3.20;;;14.70;99.90;;;;;;5070892;28;20447;-65
2022/05/26 04:03:03;;;;;;;12.32;3.00;;;14.70;99.90;;;;;;5084609;28;20094;-64
2022/05/26 04:05:29;;;;;;;11.55;2.72;;;14.70;99.90;;;;;;5077559;28;20111;-64
2022/05/26 04:07:55;;;;;;;10.38;2.17;;;14.80;99.90;;;;;;5071885;28;20148;-64
2022/05/26 04:10:22;;;;;;;13.50;2.85;;;14.80;99.90;;;;;;5070859;28;20465;-64
2022/05/26 04:12:48;;;;;;;9.85;2.60;;;14.80;99.90;;;;;;5071492;28;20123;-64
2022/05/26 04:15:15;;;;;;;10.25;2.40;;;14.90;99.90;;;;;;5072436;28;20047;-65
2022/05/26 04:17:41;;;;;;;9.68;2.38;;;14.90;99.90;;;;;;5073267;28;20052;-65
2022/05/26 04:20:11;;;;;;;13.15;2.53;;;14.90;99.90;;;;;;5072286;28;20043;-64
2022/05/26 04:22:37;;;;;;;10.18;2.75;;;14.90;99.90;;;;;;5070077;28;20063;-66
2022/05/26 04:25:04;;;;;;;10.35;2.22;;;14.90;99.90;;;;;;5072735;28;20040;-66
2022/05/26 04:27:31;;;;;;;10.98;2.25;;;14.90;99.90;;;;;;5071699;28;20550;-66
2022/05/26 04:29:57;;;;;;;8.35;1.83;;;14.90;99.90;;;;;;5073001;28;20177;-65
2022/05/26 04:32:23;;;;;;;8.60;2.40;;;14.90;99.90;;;;;;5070208;28;20628;-64
2022/05/26 04:34:50;;;;;;;11.55;2.75;;;15.00;99.90;;;;;;5082123;28;20044;-64
2022/05/26 04:37:17;;;;;;;10.75;2.58;;;14.90;99.90;;;;;;5079178;28;20044;-65
2022/05/26 04:39:43;;;;;;;15.27;3.00;;;14.90;99.90;;;;;;5081607;28;20454;-66
2022/05/26 04:42:09;;;;;;;10.98;2.10;;;15.00;99.90;;;;;;5078075;28;20040;-66
2022/05/26 04:44:38;;;;;;;10.45;2.60;;;15.00;99.90;;;;;;5069011;28;20037;-64
2022/05/26 04:47:04;;;;;;;8.73;1.77;;;15.10;99.90;;;;;;5084511;28;20101;-65
2022/05/26 04:49:30;;;;;;;10.98;2.25;;;15.20;99.90;;;;;;5077655;28;20075;-64
2022/05/26 04:51:56;;;;;;;9.55;2.13;;;15.30;99.90;;;;;;5078350;28;20075;-66
2022/05/26 04:54:22;;;;;;;11.40;2.35;;;15.40;99.90;;;;;;5074906;28;20304;-64
2022/05/26 04:56:49;;;;;;;11.30;2.63;;;15.40;99.90;;;;;;5074559;28;20078;-64
2022/05/26 04:59:15;;;;;;;10.13;2.53;;;15.40;99.90;;;;;;5078866;28;20691;-64
2022/05/26 05:01:42;;;;;;;13.00;2.92;;;15.40;99.90;;;;;;5081139;28;20525;-63
2022/05/26 05:04:08;;;;;;;9.63;2.25;;;15.50;99.90;;;;;;5083633;28;20042;-64
2022/05/26 05:06:34;;;;;;;9.93;2.20;;;15.60;99.90;;;;;;5086167;28;20118;-64
2022/05/26 05:08:59;;;;;;;7.75;2.13;;;15.70;99.90;;;;;;5086878;28;20840;-64
2022/05/26 05:11:25;;;;;;;8.98;1.90;;;15.80;99.90;;;;;;5084022;28;20048;-63
2022/05/26 05:13:50;;;;;;;9.07;2.00;;;15.80;99.90;;;;;;5087776;28;20040;-64
2022/05/26 05:16:30;;;;;;;9.82;2.03;;;15.90;99.90;;;;;;5086869;28;20040;-64
2022/05/26 05:18:56;;;;;;;9.57;2.30;;;15.90;99.90;;;;;;5084105;28;20493;-64
2022/05/26 05:21:39;;;;;;;8.80;2.13;;;16.00;99.90;;;;;;5078979;28;20528;-64
2022/05/26 05:24:16;;;;;;;11.55;2.03;;;16.00;99.90;;;;;;5084282;28;20097;-64
2022/05/26 05:26:45;;;;;;;9.75;2.22;;;16.00;99.90;;;;;;5072657;28;20098;-64
2022/05/26 05:29:15;;;;;;;7.88;1.50;;;16.10;99.90;;;;;;5082710;28;20036;-64
2022/05/26 05:31:45;;;;;;;8.90;1.60;;;16.20;99.90;;;;;;5078876;28;20071;-63
2022/05/26 05:34:23;;;;;;;8.48;1.80;;;16.20;99.90;;;;;;5081343;28;20048;-64
2022/05/26 05:36:49;;;;;;;8.95;2.15;;;16.30;99.90;;;;;;5079415;28;20064;-65
2022/05/26 05:39:15;;;;;;;7.47;1.70;;;16.30;99.90;;;;;;5076490;28;20500;-65
2022/05/26 05:41:40;;;;;;;10.90;1.67;;;16.30;99.90;;;;;;5074031;28;20098;-64
2022/05/26 05:44:06;;;;;;;7.03;1.42;;;16.30;99.90;;;;;;5085624;28;20132;-64
2022/05/26 05:46:53;;;;;;;6.93;1.35;;;16.30;99.90;;;;;;5078960;28;20049;-64
2022/05/26 05:49:20;;;;;;;6.53;1.45;;;16.30;99.90;;;;;;5079035;28;20213;-65
2022/05/26 05:51:45;;;;;;;6.97;1.40;;;16.30;99.90;;;;;;5082386;28;20044;-64
2022/05/26 05:54:11;;;;;;;4.47;1.17;;;16.30;99.90;;;;;;5096714;28;20336;-62
2022/05/26 05:56:37;;;;;;;6.65;1.40;;;16.50;99.90;;;;;;5076609;28;20048;-62
2022/05/26 05:59:03;;;;;;;7.38;1.42;;;16.50;99.90;;;;;;5082256;28;20047;-63
2022/05/26 06:01:28;;;;;;;5.75;1.35;;;16.70;99.90;;;;;;5079685;28;20463;-64
2022/05/26 06:03:54;;;;;;;5.78;1.50;;;16.90;99.90;;;;;;5079309;28;20108;-64
2022/05/26 06:06:19;;;;;;;4.28;1.10;;;17.10;99.90;;;;;;5074652;28;20044;-66
2022/05/26 06:08:45;;;;;;;5.18;1.10;;;17.40;99.90;;;;;;5074599;28;20028;-67
2022/05/26 06:11:10;;;;;;;9.88;1.50;;;17.70;99.90;;;;;;5082401;28;20036;-65
2022/05/26 06:13:36;;;;;;;5.00;1.35;;;17.90;99.90;;;;;;5083558;28;20040;-64
2022/05/26 06:16:02;;;;;;;5.45;1.20;;;18.00;99.90;;;;;;5083066;28;20498;-65
2022/05/26 06:18:28;;;;;;;6.25;1.63;;;18.10;99.90;;;;;;5084490;28;20089;-64
2022/05/26 06:21:05;;;;;;;7.95;1.30;;;18.00;99.90;;;;;;5082555;28;20137;-65
2022/05/26 06:23:31;;;;;;;6.47;1.20;;;18.00;99.90;;;;;;5085673;28;20783;-66
2022/05/26 06:25:57;;;;;;;5.40;1.00;;;18.00;99.90;;;;;;5084123;28;20051;-65
2022/05/26 06:31:08;;;;;;;5.30;1.20;;;17.80;99.90;;;;;;5074208;28;20052;-65
2022/05/26 06:39:03;;;;;;;4.75;1.08;;;17.70;99.90;;;;;;5069838;28;20808;-68
2022/05/26 06:44:14;;;;;;;4.85;1.08;;;17.80;99.90;;;;;;5071176;28;20551;-67
2022/05/26 06:46:40;;;;;;;6.68;1.20;;;17.80;99.90;;;;;;5075265;28;20048;-65
2022/05/26 06:49:06;;;;;;;4.85;1.48;;;17.70;99.90;;;;;;5070665;28;20468;-65
2022/05/26 06:51:34;;;;;;;5.60;1.05;;;17.80;99.90;;;;;;5070789;28;20131;-66
2022/05/26 06:53:59;;;;;;;3.70;0.90;;;17.70;99.90;;;;;;5070948;28;20072;-65
2022/05/26 06:56:25;;;;;;;4.15;1.00;;;17.80;99.90;;;;;;5068122;28;20391;-65
2022/05/26 06:58:50;;;;;;;4.28;0.93;;;17.70;99.90;;;;;;5078775;28;20410;-64
2022/05/26 07:01:16;;;;;;;4.43;1.00;;;17.70;99.90;;;;;;5079931;28;20340;-66
2022/05/26 07:03:42;;;;;;;4.57;1.20;;;17.70;99.90;;;;;;5080702;28;20052;-63
2022/05/26 07:06:16;;;;;;;6.13;1.30;;;17.70;99.90;;;;;;5083685;28;20055;-64
2022/05/26 07:08:43;;;;;;;5.50;1.13;;;17.80;99.90;;;;;;5082942;28;20045;-64
2022/05/26 07:11:09;;;;;;;5.43;0.95;;;17.90;99.90;;;;;;5085144;28;20179;-65
2022/05/26 07:13:34;;;;;;;4.20;0.88;;;17.90;99.90;;;;;;5083943;28;20079;-63
2022/05/26 07:16:00;;;;;;;3.50;0.85;;;17.90;99.90;;;;;;5078192;28;20064;-64
2022/05/26 07:18:27;;;;;;;5.68;1.00;;;18.00;99.90;;;;;;5076210;28;20176;-64
2022/05/26 07:20:52;;;;;;;6.60;1.10;;;18.00;99.90;;;;;;5077010;28;20105;-65
2022/05/26 07:23:18;;;;;;;3.42;0.80;;;17.90;99.90;;;;;;5076560;28;20035;-64
2022/05/26 07:25:43;;;;;;;4.30;1.15;;;18.00;99.90;;;;;;5082991;28;20228;-67
2022/05/26 07:28:13;;;;;;;3.00;0.93;;;17.90;99.90;;;;;;5076414;28;20040;-66
2022/05/26 07:30:40;;;;;;;5.22;1.08;;;17.90;99.90;;;;;;5078911;28;20052;-64
2022/05/26 07:33:06;;;;;;;4.35;0.80;;;18.00;99.90;;;;;;5074603;28;20028;-63
2022/05/26 07:35:31;;;;;;;7.15;1.05;;;18.10;99.90;;;;;;5078629;28;20086;-65
2022/05/26 07:43:31;;;;;;;6.30;1.15;;;18.40;99.90;;;;;;5075743;28;20052;-66
2022/05/26 07:45:57;;;;;;;4.82;1.05;;;18.50;99.90;;;;;;5084697;28;20040;-65
2022/05/26 07:48:22;;;;;;;4.78;1.10;;;18.60;99.90;;;;;;5079525;28;20400;-64
2022/05/26 07:50:48;;;;;;;4.40;1.10;;;18.80;99.90;;;;;;5085548;28;20048;-65
2022/05/26 07:53:13;;;;;;;4.97;1.00;;;18.80;99.90;;;;;;5079681;28;20048;-65
2022/05/26 07:55:42;;;;;;;2.92;0.90;;;18.90;99.90;;;;;;5079658;28;20044;-64
2022/05/26 07:58:09;;;;;;;5.10;1.10;;;19.00;99.90;;;;;;5074685;28;20055;-64
2022/05/26 08:00:35;;;;;;;4.22;0.93;;;19.00;99.90;;;;;;5082942;28;20455;-64
2022/05/26 08:03:01;;;;;;;3.95;0.80;;;19.00;99.90;;;;;;5086059;28;20128;-63
2022/05/26 08:05:27;;;;;;;5.05;1.10;;;19.10;99.90;;;;;;5079070;28;21661;-64
2022/05/26 08:07:52;;;;;;;3.50;1.10;;;19.30;99.90;;;;;;5088686;28;20048;-64
2022/05/26 08:10:18;;;;;;;7.03;1.15;;;19.40;99.90;;;;;;5085947;28;20441;-64
2022/05/26 08:12:43;;;;;;;4.55;0.85;;;19.40;99.90;;;;;;5090056;28;20032;-65
2022/05/26 08:15:10;;;;;;;2.70;0.90;;;19.40;99.90;;;;;;5088394;28;20397;-64
2022/05/26 08:17:36;;;;;;;3.65;0.90;;;19.30;99.90;;;;;;5089236;28;20117;-65
2022/05/26 08:20:02;;;;;;;7.03;1.10;;;19.40;99.90;;;;;;5090244;28;20060;-66
2022/05/26 08:22:28;;;;;;;3.90;1.15;;;19.30;99.10;;;;;;5086193;28;20396;-65
2022/05/26 08:24:56;;;;;;;5.13;1.05;;;19.30;98.50;;;;;;5081258;28;20075;-64
2022/05/26 08:27:22;;;;;;;3.13;0.98;;;19.50;97.80;;;;;;5077334;28;20148;-64
2022/05/26 08:29:48;;;;;;;3.88;0.90;;;19.60;97.80;;;;;;5091252;28;20489;-65
2022/05/26 08:32:17;;;;;;;4.38;0.80;;;19.60;97.00;;;;;;5088815;28;20040;-64
2022/05/26 08:34:43;;;;;;;4.18;0.93;;;19.70;96.70;;;;;;5086527;28;20040;-65
2022/05/26 08:37:19;;;;;;;4.10;0.80;;;19.40;97.40;;;;;;5088876;28;20039;-65
2022/05/26 08:39:46;;;;;;;3.53;0.88;;;19.30;97.60;;;;;;5090263;28;20044;-65
2022/05/26 08:42:27;;;;;;;4.93;1.00;;;19.30;98.00;;;;;;5088471;28;20052;-65
2022/05/26 08:44:56;;;;;;;2.97;0.88;;;19.50;98.10;;;;;;5081181;28;20044;-64
2022/05/26 08:47:44;;;;;;;3.40;0.85;;;19.70;98.50;;;;;;5081456;28;20047;-64
2022/05/26 08:50:19;;;;;;;5.78;1.10;;;19.80;96.80;;;;;;5088200;28;20067;-66
2022/05/26 08:52:49;;;;;;;4.93;0.93;;;19.90;95.40;;;;;;5089113;28;20170;-64
2022/05/26 08:55:22;;;;;;;2.88;0.82;;;20.20;95.70;;;;;;5088549;28;20415;-64
2022/05/26 08:57:58;;;;;;;3.47;0.85;;;20.30;94.50;;;;;;5083636;28;20119;-66
2022/05/26 09:00:25;;;;;;;4.53;1.02;;;20.40;92.10;;;;;;5081427;28;20055;-68
2022/05/26 09:02:59;;;;;;;2.30;0.60;;;20.40;90.90;;;;;;5084551;28;20075;-65
2022/05/26 09:05:27;;;;;;;4.53;1.38;;;20.50;91.40;;;;;;5082104;28;20123;-65
2022/05/26 09:13:50;;;;;;;4.18;0.90;;;20.70;89.30;;;;;;5082348;28;20391;-63
2022/05/26 09:16:16;;;;;;;3.15;0.82;;;20.80;89.70;;;;;;5088102;28;20044;-62
2022/05/26 09:18:43;;;;;;;3.75;1.13;;;20.60;87.00;;;;;;5084893;28;20079;-65
2022/05/26 09:21:22;;;;;;;3.08;0.80;;;20.60;86.40;;;;;;5084161;28;20118;-65
2022/05/26 09:23:48;;;;;;;3.00;0.70;;;20.70;84.50;;;;;;5087489;28;20076;-65
2022/05/26 09:26:22;;;;;;;4.15;1.20;;;20.60;85.90;;;;;;5086732;28;20136;-65
2022/05/26 09:28:49;;;;;;;;;;;20.50;84.30;;;;;;5082888;28;20100;-65
2022/05/26 09:31:38;;;;;;;3.10;1.00;;;20.20;81.80;;;;;;5077235;28;20086;-65
2022/05/26 09:34:32;;;;;;;5.50;0.90;;;20.10;85.80;;;;;;5075346;28;20056;-65
2022/05/26 09:37:04;;;;;;;4.03;1.02;;;20.10;89.00;;;;;;5087194;28;20094;-66
2022/05/26 09:39:34;;;;;;;4.25;0.93;;;20.20;89.40;;;;;;5077262;28;20130;-64
2022/05/26 09:42:02;;;;;;;4.38;0.90;;;20.30;90.30;;;;;;5078707;28;20470;-64
2022/05/26 09:44:38;;;;;;;5.25;1.00;;;20.20;90.60;;;;;;5082932;28;20055;-65
2022/05/26 09:47:24;;;;;;;6.30;1.05;;;20.00;90.90;;;;;;5080943;28;20056;-64
2022/05/26 09:49:53;;;;;;;3.53;0.80;;;19.70;92.30;;;;;;5079112;28;20052;-64
2022/05/26 09:52:23;;;;;;;3.80;1.00;;;19.30;91.10;;;;;;5080408;28;20036;-64
2022/05/26 09:55:05;;;;;;;6.50;1.15;;;19.30;92.20;;;;;;5080945;28;20406;-65
2022/05/26 09:57:31;;;;;;;6.18;1.20;;;19.20;92.50;;;;;;5085480;28;20032;-64
2022/05/26 09:59:57;;;;;;;7.30;1.17;;;19.20;93.00;;;;;;5081504;28;20371;-64
2022/05/26 10:02:32;;;;;;;4.43;1.20;;;19.10;94.00;;;;;;5080745;28;20128;-64
2022/05/26 10:05:13;;;;;;;3.85;1.10;;;19.10;94.60;;;;;;5082156;28;20115;-65
2022/05/26 10:08:00;;;;;;;7.10;1.45;;;19.30;94.90;;;;;;5079409;28;20074;-64
2022/05/26 10:10:42;;;;;;;5.13;1.10;;;19.80;96.60;;;;;;5082634;28;20040;-65
2022/05/26 10:13:42;;;;;;;3.08;0.98;;;20.20;96.10;;;;;;5082878;28;20101;-65
2022/05/26 10:16:23;;;;;;;5.22;1.20;;;20.50;95.20;;;;;;5076210;28;20166;-64
2022/05/26 10:19:07;;;;;;;3.92;1.27;;;20.80;95.10;;;;;;5076330;28;20074;-65
2022/05/26 10:22:23;;;;;;;5.70;1.40;;;20.80;94.10;;;;;;5075675;28;20458;-64
2022/05/26 10:25:13;;;;;;;4.10;1.15;;;21.00;93.70;;;;;;5082723;28;20107;-65
2022/05/26 10:27:56;;;;;;;3.97;1.40;;;21.30;93.00;;;;;;5079513;28;20051;-65
2022/05/26 10:31:03;;;;;;;4.53;1.38;;;21.30;91.20;;;;;;5079047;28;20147;-65
2022/05/26 10:33:44;;;;;;;4.82;1.10;;;21.40;91.00;;;;;;5078418;28;20089;-66
2022/05/26 10:36:21;;;;;;;5.18;1.30;;;21.40;90.10;;;;;;5076579;28;20152;-65
2022/05/26 10:39:00;;;;;;;4.07;1.10;;;21.30;90.40;;;;;;5075219;28;20045;-64
2022/05/26 10:41:37;;;;;;;5.18;1.30;;;21.40;90.40;;;;;;5080184;28;20424;-65
2022/05/26 10:44:28;;;;;;;5.82;1.13;;;21.60;86.10;;;;;;5081966;28;20055;-67
2022/05/26 10:47:02;;;;;;;7.05;1.45;;;21.70;87.20;;;;;;5075901;28;20062;-64
2022/05/26 10:49:40;;;;;;;6.78;1.30;;;21.70;85.80;;;;;;5084372;28;20040;-65
2022/05/26 10:52:31;;;;;;;6.00;1.33;;;21.60;87.60;;;;;;5074428;28;20040;-64
2022/05/26 10:55:00;;;;;;;5.13;1.30;;;21.50;88.70;;;;;;5077883;28;20085;-66
2022/05/26 10:57:48;;;;;;;6.63;1.40;;;21.40;88.70;;;;;;5087647;28;20338;-64
2022/05/26 11:00:17;;;;;;;5.97;1.42;;;21.20;87.70;;;;;;5088930;28;20177;-63
2022/05/26 11:02:51;;;;;;;4.35;0.88;;;21.20;90.10;;;;;;5080072;28;20355;-65
2022/05/26 11:05:27;;;;;;;7.38;1.15;;;21.40;89.80;;;;;;5086283;28;20128;-65
2022/05/26 11:08:12;;;;;;;4.15;1.00;;;21.50;86.50;;;;;;5084277;28;20051;-64
2022/05/26 11:10:50;;;;;;;5.72;1.15;;;21.40;85.10;;;;;;5087734;28;20107;-65
2022/05/26 11:13:37;;;;;;;4.75;1.02;;;21.50;85.30;;;;;;5086802;28;20056;-64
2022/05/26 11:19:11;;;;;;;3.80;1.02;;;21.20;84.20;;;;;;5086728;28;20151;-64
2022/05/26 11:21:37;;;;;;;5.50;1.30;;;21.20;84.50;;;;;;5084742;28;20086;-65
2022/05/26 11:24:07;;;;;;;5.47;1.08;;;21.30;85.60;;;;;;5075681;28;20146;-67
2022/05/26 11:26:54;;;;;;;3.58;0.90;;;21.50;83.70;;;;;;5087733;28;20044;-64
2022/05/26 11:29:35;;;;;;;3.95;1.02;;;21.80;80.70;;;;;;5069468;28;20119;-65
2022/05/26 11:38:06;;;;;;;5.20;1.20;;;22.30;83.80;;;;;;5079084;28;20199;-65
2022/05/26 11:40:44;;;;;;;4.40;1.35;;;22.40;83.00;;;;;;5083474;28;20419;-65
2022/05/26 11:43:10;;;;;;;4.05;1.20;;;22.60;84.00;;;;;;5089313;28;20582;-67
2022/05/26 11:45:48;;;;;;;4.32;0.98;;;22.70;82.50;;;;;;5086292;28;20079;-64
2022/05/26 11:48:32;;;;;;;5.35;1.10;;;22.80;81.40;;;;;;5091992;28;20124;-65
2022/05/26 11:51:23;;;;;;;6.50;1.40;;;22.80;76.80;;;;;;5092297;28;20059;-65
2022/05/26 11:53:50;;;;;;;6.38;1.00;;;22.90;81.80;;;;;;5092167;28;20048;-65
2022/05/26 11:56:25;;;;;;;7.72;1.50;;;23.00;80.00;;;;;;5090180;28;20493;-65
2022/05/26 11:59:21;;;;;;;3.22;1.08;;;22.90;76.20;;;;;;5083944;28;20044;-64
2022/05/26 12:01:59;;;;;;;5.00;1.30;;;23.00;77.90;;;;;;5077041;28;20383;-65
2022/05/26 12:04:30;;;;;;;4.85;1.30;;;23.20;74.60;;;;;;5092320;28;20040;-65
2022/05/26 12:07:02;;;;;;;5.15;1.20;;;23.10;73.50;;;;;;5088218;28;20043;-64
2022/05/26 12:09:48;;;;;;;4.82;0.98;;;23.30;72.90;;;;;;5081937;28;20052;-65
2022/05/26 12:12:16;;;;;;;5.22;1.02;;;23.20;73.20;;;;;;5091084;28;20466;-65
2022/05/26 12:14:50;;;;;;;4.85;1.02;;;23.00;70.20;;;;;;5092679;28;20040;-66
2022/05/26 12:17:33;;;;;;;4.30;1.27;;;23.00;70.70;;;;;;5080586;28;20052;-65
2022/05/26 12:20:20;;;;;;;5.10;1.13;;;22.60;70.10;;;;;;5082793;28;20066;-64
2022/05/26 12:22:51;;;;;;;5.85;1.23;;;22.70;70.70;;;;;;5083596;28;20056;-65
2022/05/26 12:25:20;;;;;;;3.80;1.00;;;22.70;71.10;;;;;;5091765;28;20055;-65
2022/05/26 12:27:48;;;;;;;7.63;1.33;;;22.90;71.60;;;;;;5086769;28;20039;-65
2022/05/26 12:30:44;;;;;;;4.88;1.02;;;22.90;69.60;;;;;;5086226;28;20125;-68
2022/05/26 12:33:19;;;;;;;5.03;1.60;;;22.90;69.20;;;;;;5083946;28;20047;-65
2022/05/26 12:36:07;;;;;;;6.93;1.30;;;22.90;69.30;;;;;;5082611;28;20051;-64
2022/05/26 12:39:14;;;;;;;5.10;1.23;;;22.80;67.70;;;;;;5086578;28;20048;-65
2022/05/26 12:41:58;;;;;;;3.42;0.93;;;22.60;71.80;;;;;;5081439;28;20123;-65
2022/05/26 12:44:39;;;;;;;6.03;1.23;;;22.60;69.60;;;;;;5092144;28;20159;-65
2022/05/26 12:47:36;;;;;;;6.18;1.23;;;22.60;70.50;;;;;;5078606;28;20043;-64
2022/05/26 12:50:14;;;;;;;5.95;1.27;;;22.40;69.80;;;;;;5082123;28;20055;-66
2022/05/26 12:52:55;;;;;;;6.50;1.45;;;22.40;70.80;;;;;;5090414;28;20068;-64
2022/05/26 12:55:32;;;;;;;6.15;1.17;;;22.60;70.80;;;;;;5089331;28;20040;-64
2022/05/26 12:58:19;;;;;;;9.15;1.70;;;22.70;71.40;;;;;;5091949;28;20080;-64
2022/05/26 13:00:58;;;;;;;5.97;1.50;;;22.70;69.60;;;;;;5083471;28;20336;-64
2022/05/26 13:03:42;;;;;;;8.15;1.42;;;22.70;69.70;;;;;;5091053;28;20397;-65
2022/05/26 13:06:11;;;;;;;7.23;1.70;;;23.00;70.50;;;;;;5089310;28;20040;-64
2022/05/26 13:08:56;;;;;;;6.32;1.42;;;22.90;70.50;;;;;;5088159;28;20044;-65
2022/05/26 13:11:32;;;;;;;7.38;1.50;;;22.90;70.30;;;;;;5075861;28;20053;-65
2022/05/26 13:14:01;;;;;;;7.38;1.30;;;22.90;69.10;;;;;;5071781;28;20059;-64
2022/05/26 13:16:41;;;;;;;6.25;1.45;;;23.10;68.60;;;;;;5073581;28;20445;-66
2022/05/26 13:19:21;;;;;;;5.35;1.20;;;23.20;68.80;;;;;;5075137;28;20402;-64
2022/05/26 13:21:49;;;;;;;6.25;1.27;;;23.20;66.50;;;;;;5088280;28;20069;-67
2022/05/26 13:24:16;;;;;;;6.65;1.20;;;23.00;68.20;;;;;;5072984;28;20363;-67
2022/05/26 13:26:43;;;;;;;6.97;1.60;;;23.20;67.70;;;;;;5072075;28;20048;-67
2022/05/26 13:29:10;;;;;;;6.55;1.58;;;23.00;67.50;;;;;;5069634;28;20048;-67
2022/05/26 13:34:29;;;;;;;7.38;1.88;;;22.90;69.10;;;;;;5082778;28;20105;-67
2022/05/26 13:36:54;;;;;;;6.90;1.60;;;22.80;70.70;;;;;;5086325;28;20143;-68
2022/05/26 13:39:23;;;;;;;6.78;1.63;;;22.70;70.80;;;;;;5084830;28;20501;-67
2022/05/26 13:41:52;;;;;;;6.60;1.75;;;22.60;71.30;;;;;;5079031;28;20052;-67
2022/05/26 13:44:34;;;;;;;7.20;1.80;;;22.60;71.20;;;;;;5088981;28;20489;-66
2022/05/26 13:47:04;;;;;;;5.85;1.52;;;22.60;71.70;;;;;;5088922;28;20257;-67
2022/05/26 13:49:37;;;;;;;5.32;1.40;;;22.60;72.70;;;;;;5089556;28;20047;-66
2022/05/26 13:52:19;;;;;;;9.50;1.80;;;22.60;74.20;;;;;;5087028;28;20447;-69